sensor_id;sensor_type;location;lat;lon;timestamp;P1;durP1;ratioP1;P2;durP2;ratioP2
215;SDS011;64590;48.81286795;9.14184224;2023-04-03T00:01:24;6.97;;;4.53;;
215;SDS011;64590;48.81286795;9.14184224;2023-04-03T00:03:51;8.85;;;5.40;;
215;SDS011;64590;48.81286795;9.14184224;2023-04-03T00:06:19;9.10;;;4.63;;
215;SDS011;64590;48.81286795;9.14184224;2023-04-03T00:08:45;7.80;;;4.80;;
215;SDS011;64590;48.81286795;9.14184224;2023-04-03T00:11:12;9.50;;;4.70;;
215;SDS011;64590;48.81286795;9.14184224;2023-04-03T00:13:39;9.50;;;5.10;;
215;SDS011;64590;48.81286795;9.14184224;2023-04-03T00:16:06;7.78;;;4.70;;
215;SDS011;64590;48.81286795;9.14184224;2023-04-03T00:18:33;6.85;;;4.70;;
215;SDS011;64590;48.81286795;9.14184224;2023-04-03T00:21:01;9.60;;;4.82;;
215;SDS011;64590;48.81286795;9.14184224;2023-04-03T00:23:28;9.13;;;5.03;;
215;SDS011;64590;48.81286795;9.14184224;2023-04-03T00:25:55;11.73;;;5.20;;
215;SDS011;64590;48.81286795;9.14184224;2023-04-03T00:28:22;10.05;;;5.25;;
215;SDS011;64590;48.81286795;9.14184224;2023-04-03T00:30:48;18.60;;;5.50;;
215;SDS011;64590;48.81286795;9.14184224;2023-04-03T00:33:15;9.40;;;5.10;;
215;SDS011;64590;48.81286795;9.14184224;2023-04-03T00:35:42;8.77;;;5.07;;
215;SDS011;64590;48.81286795;9.14184224;2023-04-03T00:38:08;10.35;;;5.10;;
215;SDS011;64590;48.81286795;9.14184224;2023-04-03T00:40:38;9.20;;;5.38;;
215;SDS011;64590;48.81286795;9.14184224;2023-04-03T00:43:10;10.80;;;5.65;;
215;SDS011;64590;48.81286795;9.14184224;2023-04-03T00:45:39;10.88;;;5.32;;
215;SDS011;64590;48.81286795;9.14184224;2023-04-03T00:48:07;8.70;;;5.28;;
215;SDS011;64590;48.81286795;9.14184224;2023-04-03T00:50:38;8.70;;;5.10;;
215;SDS011;64590;48.81286795;9.14184224;2023-04-03T00:53:06;12.05;;;5.10;;
215;SDS011;64590;48.81286795;9.14184224;2023-04-03T00:55:38;11.32;;;5.82;;
215;SDS011;64590;48.81286795;9.14184224;2023-04-03T00:58:06;10.43;;;5.40;;
215;SDS011;64590;48.81286795;9.14184224;2023-04-03T01:00:33;8.27;;;5.18;;
215;SDS011;64590;48.81286795;9.14184224;2023-04-03T01:03:02;13.23;;;4.97;;
215;SDS011;64590;48.81286795;9.14184224;2023-04-03T01:05:29;8.75;;;5.05;;
215;SDS011;64590;48.81286795;9.14184224;2023-04-03T01:07:56;10.70;;;4.97;;
215;SDS011;64590;48.81286795;9.14184224;2023-04-03T01:10:24;7.93;;;5.07;;
215;SDS011;64590;48.81286795;9.14184224;2023-04-03T01:12:52;7.57;;;4.90;;
215;SDS011;64590;48.81286795;9.14184224;2023-04-03T01:15:20;7.63;;;4.90;;
215;SDS011;64590;48.81286795;9.14184224;2023-04-03T01:17:49;8.25;;;4.63;;
215;SDS011;64590;48.81286795;9.14184224;2023-04-03T01:23:32;9.13;;;4.78;;
215;SDS011;64590;48.81286795;9.14184224;2023-04-03T01:26:10;11.27;;;5.25;;
215;SDS011;64590;48.81286795;9.14184224;2023-04-03T01:28:39;8.55;;;5.10;;
215;SDS011;64590;48.81286795;9.14184224;2023-04-03T01:31:09;8.88;;;5.10;;
215;SDS011;64590;48.81286795;9.14184224;2023-04-03T01:33:44;9.27;;;5.15;;
215;SDS011;64590;48.81286795;9.14184224;2023-04-03T01:36:13;7.78;;;4.72;;
215;SDS011;64590;48.81286795;9.14184224;2023-04-03T01:38:43;8.38;;;5.15;;
215;SDS011;64590;48.81286795;9.14184224;2023-04-03T01:41:10;8.45;;;5.20;;
215;SDS011;64590;48.81286795;9.14184224;2023-04-03T01:43:37;9.20;;;5.43;;
215;SDS011;64590;48.81286795;9.14184224;2023-04-03T01:46:03;9.20;;;5.30;;
215;SDS011;64590;48.81286795;9.14184224;2023-04-03T01:48:30;10.57;;;5.15;;
215;SDS011;64590;48.81286795;9.14184224;2023-04-03T01:50:58;9.38;;;5.75;;
215;SDS011;64590;48.81286795;9.14184224;2023-04-03T01:53:25;12.85;;;5.50;;
215;SDS011;64590;48.81286795;9.14184224;2023-04-03T01:55:51;12.10;;;5.57;;
215;SDS011;64590;48.81286795;9.14184224;2023-04-03T01:58:18;8.85;;;5.30;;
215;SDS011;64590;48.81286795;9.14184224;2023-04-03T02:00:47;9.25;;;5.30;;
215;SDS011;64590;48.81286795;9.14184224;2023-04-03T02:03:13;8.20;;;5.20;;
215;SDS011;64590;48.81286795;9.14184224;2023-04-03T02:05:40;8.30;;;5.40;;
215;SDS011;64590;48.81286795;9.14184224;2023-04-03T02:08:08;9.68;;;5.10;;
215;SDS011;64590;48.81286795;9.14184224;2023-04-03T02:10:35;7.82;;;5.25;;
215;SDS011;64590;48.81286795;9.14184224;2023-04-03T02:13:01;9.57;;;5.68;;
215;SDS011;64590;48.81286795;9.14184224;2023-04-03T02:15:28;8.32;;;5.35;;
215;SDS011;64590;48.81286795;9.14184224;2023-04-03T02:17:55;8.65;;;5.20;;
215;SDS011;64590;48.81286795;9.14184224;2023-04-03T02:20:22;8.18;;;5.35;;
215;SDS011;64590;48.81286795;9.14184224;2023-04-03T02:22:48;10.82;;;5.22;;
215;SDS011;64590;48.81286795;9.14184224;2023-04-03T02:25:16;8.60;;;4.97;;
215;SDS011;64590;48.81286795;9.14184224;2023-04-03T02:27:43;9.10;;;5.32;;
215;SDS011;64590;48.81286795;9.14184224;2023-04-03T02:30:10;8.00;;;5.30;;
215;SDS011;64590;48.81286795;9.14184224;2023-04-03T02:32:38;8.13;;;4.80;;
215;SDS011;64590;48.81286795;9.14184224;2023-04-03T02:35:06;8.77;;;5.13;;
215;SDS011;64590;48.81286795;9.14184224;2023-04-03T02:37:34;11.48;;;5.50;;
215;SDS011;64590;48.81286795;9.14184224;2023-04-03T02:40:00;11.50;;;5.45;;
215;SDS011;64590;48.81286795;9.14184224;2023-04-03T02:42:29;9.88;;;5.60;;
215;SDS011;64590;48.81286795;9.14184224;2023-04-03T02:44:56;9.38;;;5.20;;
215;SDS011;64590;48.81286795;9.14184224;2023-04-03T02:47:22;9.63;;;5.20;;
215;SDS011;64590;48.81286795;9.14184224;2023-04-03T02:49:49;8.75;;;5.30;;
215;SDS011;64590;48.81286795;9.14184224;2023-04-03T02:52:18;8.45;;;5.28;;
215;SDS011;64590;48.81286795;9.14184224;2023-04-03T02:54:46;10.00;;;5.47;;
215;SDS011;64590;48.81286795;9.14184224;2023-04-03T02:57:13;9.38;;;5.28;;
215;SDS011;64590;48.81286795;9.14184224;2023-04-03T02:59:41;10.63;;;5.45;;
215;SDS011;64590;48.81286795;9.14184224;2023-04-03T03:02:09;8.40;;;5.10;;
215;SDS011;64590;48.81286795;9.14184224;2023-04-03T03:04:37;9.88;;;5.63;;
215;SDS011;64590;48.81286795;9.14184224;2023-04-03T03:07:03;10.70;;;5.00;;
215;SDS011;64590;48.81286795;9.14184224;2023-04-03T03:09:31;7.95;;;4.90;;
215;SDS011;64590;48.81286795;9.14184224;2023-04-03T03:11:57;7.40;;;4.85;;
215;SDS011;64590;48.81286795;9.14184224;2023-04-03T03:14:24;9.05;;;4.80;;
215;SDS011;64590;48.81286795;9.14184224;2023-04-03T03:16:52;8.85;;;5.00;;
215;SDS011;64590;48.81286795;9.14184224;2023-04-03T03:19:18;7.43;;;4.70;;
215;SDS011;64590;48.81286795;9.14184224;2023-04-03T03:21:45;7.30;;;4.70;;
215;SDS011;64590;48.81286795;9.14184224;2023-04-03T03:24:11;8.55;;;5.03;;
215;SDS011;64590;48.81286795;9.14184224;2023-04-03T03:26:38;7.90;;;4.90;;
215;SDS011;64590;48.81286795;9.14184224;2023-04-03T03:29:05;7.70;;;4.50;;
215;SDS011;64590;48.81286795;9.14184224;2023-04-03T03:31:31;9.38;;;5.15;;
215;SDS011;64590;48.81286795;9.14184224;2023-04-03T03:33:59;7.75;;;4.90;;
215;SDS011;64590;48.81286795;9.14184224;2023-04-03T03:36:26;7.68;;;4.97;;
215;SDS011;64590;48.81286795;9.14184224;2023-04-03T03:38:52;7.43;;;4.53;;
215;SDS011;64590;48.81286795;9.14184224;2023-04-03T03:41:19;10.45;;;5.32;;
215;SDS011;64590;48.81286795;9.14184224;2023-04-03T03:43:46;7.82;;;4.82;;
215;SDS011;64590;48.81286795;9.14184224;2023-04-03T03:46:14;8.38;;;4.68;;
215;SDS011;64590;48.81286795;9.14184224;2023-04-03T03:48:40;8.65;;;5.03;;
215;SDS011;64590;48.81286795;9.14184224;2023-04-03T03:51:08;8.48;;;4.80;;
215;SDS011;64590;48.81286795;9.14184224;2023-04-03T03:53:37;9.20;;;4.88;;
215;SDS011;64590;48.81286795;9.14184224;2023-04-03T03:56:07;7.90;;;5.00;;
215;SDS011;64590;48.81286795;9.14184224;2023-04-03T03:58:36;9.07;;;5.03;;
215;SDS011;64590;48.81286795;9.14184224;2023-04-03T04:01:03;8.45;;;4.95;;
215;SDS011;64590;48.81286795;9.14184224;2023-04-03T04:03:33;8.85;;;4.80;;
215;SDS011;64590;48.81286795;9.14184224;2023-04-03T04:06:00;8.40;;;4.85;;
215;SDS011;64590;48.81286795;9.14184224;2023-04-03T04:08:28;7.80;;;4.88;;
215;SDS011;64590;48.81286795;9.14184224;2023-04-03T04:10:55;8.80;;;4.90;;
215;SDS011;64590;48.81286795;9.14184224;2023-04-03T04:13:22;9.35;;;5.20;;
215;SDS011;64590;48.81286795;9.14184224;2023-04-03T04:15:48;11.90;;;5.45;;
215;SDS011;64590;48.81286795;9.14184224;2023-04-03T04:18:16;8.82;;;5.20;;
215;SDS011;64590;48.81286795;9.14184224;2023-04-03T04:20:47;8.52;;;5.28;;
215;SDS011;64590;48.81286795;9.14184224;2023-04-03T04:23:15;12.75;;;5.55;;
215;SDS011;64590;48.81286795;9.14184224;2023-04-03T04:25:45;9.02;;;5.20;;
215;SDS011;64590;48.81286795;9.14184224;2023-04-03T04:28:12;8.65;;;5.32;;
215;SDS011;64590;48.81286795;9.14184224;2023-04-03T04:30:39;7.72;;;5.10;;
215;SDS011;64590;48.81286795;9.14184224;2023-04-03T04:33:06;10.25;;;5.20;;
215;SDS011;64590;48.81286795;9.14184224;2023-04-03T04:35:33;10.02;;;5.20;;
215;SDS011;64590;48.81286795;9.14184224;2023-04-03T04:38:01;10.52;;;6.78;;
215;SDS011;64590;48.81286795;9.14184224;2023-04-03T04:40:28;9.45;;;5.10;;
215;SDS011;64590;48.81286795;9.14184224;2023-04-03T04:42:56;8.70;;;4.90;;
215;SDS011;64590;48.81286795;9.14184224;2023-04-03T04:45:23;8.38;;;4.80;;
215;SDS011;64590;48.81286795;9.14184224;2023-04-03T04:47:50;8.60;;;4.85;;
215;SDS011;64590;48.81286795;9.14184224;2023-04-03T04:50:18;7.20;;;4.55;;
215;SDS011;64590;48.81286795;9.14184224;2023-04-03T04:52:45;8.05;;;4.50;;
215;SDS011;64590;48.81286795;9.14184224;2023-04-03T04:55:11;7.32;;;4.40;;
215;SDS011;64590;48.81286795;9.14184224;2023-04-03T04:57:38;8.05;;;4.38;;
215;SDS011;64590;48.81286795;9.14184224;2023-04-03T05:00:07;6.95;;;4.53;;
215;SDS011;64590;48.81286795;9.14184224;2023-04-03T05:02:35;7.60;;;4.60;;
215;SDS011;64590;48.81286795;9.14184224;2023-04-03T05:05:01;8.40;;;4.60;;
215;SDS011;64590;48.81286795;9.14184224;2023-04-03T05:07:29;7.70;;;4.82;;
215;SDS011;64590;48.81286795;9.14184224;2023-04-03T05:09:57;7.95;;;4.90;;
215;SDS011;64590;48.81286795;9.14184224;2023-04-03T05:12:24;8.57;;;4.82;;
215;SDS011;64590;48.81286795;9.14184224;2023-04-03T05:14:55;10.65;;;4.78;;
215;SDS011;64590;48.81286795;9.14184224;2023-04-03T05:17:24;8.10;;;5.05;;
215;SDS011;64590;48.81286795;9.14184224;2023-04-03T05:19:54;9.15;;;4.50;;
215;SDS011;64590;48.81286795;9.14184224;2023-04-03T05:22:22;8.35;;;4.57;;
215;SDS011;64590;48.81286795;9.14184224;2023-04-03T05:24:51;8.75;;;4.90;;
215;SDS011;64590;48.81286795;9.14184224;2023-04-03T05:27:18;8.32;;;4.90;;
215;SDS011;64590;48.81286795;9.14184224;2023-04-03T05:29:50;9.98;;;4.65;;
215;SDS011;64590;48.81286795;9.14184224;2023-04-03T05:32:20;7.80;;;5.00;;
215;SDS011;64590;48.81286795;9.14184224;2023-04-03T05:34:52;8.05;;;4.55;;
215;SDS011;64590;48.81286795;9.14184224;2023-04-03T05:37:19;9.38;;;5.30;;
215;SDS011;64590;48.81286795;9.14184224;2023-04-03T05:39:46;7.70;;;4.30;;
215;SDS011;64590;48.81286795;9.14184224;2023-04-03T05:42:13;6.97;;;4.38;;
215;SDS011;64590;48.81286795;9.14184224;2023-04-03T05:44:41;8.23;;;4.75;;
215;SDS011;64590;48.81286795;9.14184224;2023-04-03T05:47:08;9.65;;;4.53;;
215;SDS011;64590;48.81286795;9.14184224;2023-04-03T05:49:34;7.60;;;4.97;;
215;SDS011;64590;48.81286795;9.14184224;2023-04-03T05:52:08;8.80;;;5.03;;
215;SDS011;64590;48.81286795;9.14184224;2023-04-03T05:54:44;8.27;;;5.07;;
215;SDS011;64590;48.81286795;9.14184224;2023-04-03T05:57:17;8.02;;;4.55;;
215;SDS011;64590;48.81286795;9.14184224;2023-04-03T05:59:45;9.63;;;4.35;;
215;SDS011;64590;48.81286795;9.14184224;2023-04-03T06:02:13;7.18;;;4.60;;
215;SDS011;64590;48.81286795;9.14184224;2023-04-03T06:04:42;8.20;;;5.40;;
215;SDS011;64590;48.81286795;9.14184224;2023-04-03T06:07:11;7.47;;;4.35;;
215;SDS011;64590;48.81286795;9.14184224;2023-04-03T06:09:38;7.95;;;4.63;;
215;SDS011;64590;48.81286795;9.14184224;2023-04-03T06:12:05;8.00;;;4.57;;
215;SDS011;64590;48.81286795;9.14184224;2023-04-03T06:14:31;8.50;;;4.80;;
215;SDS011;64590;48.81286795;9.14184224;2023-04-03T06:17:00;9.50;;;5.07;;
215;SDS011;64590;48.81286795;9.14184224;2023-04-03T06:19:27;8.70;;;4.70;;
215;SDS011;64590;48.81286795;9.14184224;2023-04-03T06:21:55;7.97;;;4.40;;
215;SDS011;64590;48.81286795;9.14184224;2023-04-03T06:24:24;8.70;;;4.85;;
215;SDS011;64590;48.81286795;9.14184224;2023-04-03T06:26:51;8.15;;;4.82;;
215;SDS011;64590;48.81286795;9.14184224;2023-04-03T06:29:18;8.77;;;4.82;;
215;SDS011;64590;48.81286795;9.14184224;2023-04-03T06:31:46;7.70;;;4.70;;
215;SDS011;64590;48.81286795;9.14184224;2023-04-03T06:34:13;8.68;;;4.97;;
215;SDS011;64590;48.81286795;9.14184224;2023-04-03T06:36:40;7.55;;;4.75;;
215;SDS011;64590;48.81286795;9.14184224;2023-04-03T06:39:08;9.52;;;5.00;;
215;SDS011;64590;48.81286795;9.14184224;2023-04-03T06:41:39;9.00;;;5.00;;
215;SDS011;64590;48.81286795;9.14184224;2023-04-03T06:44:06;10.05;;;5.22;;
215;SDS011;64590;48.81286795;9.14184224;2023-04-03T06:46:36;8.88;;;5.20;;
215;SDS011;64590;48.81286795;9.14184224;2023-04-03T06:49:04;7.95;;;4.90;;
215;SDS011;64590;48.81286795;9.14184224;2023-04-03T06:51:32;10.85;;;4.97;;
215;SDS011;64590;48.81286795;9.14184224;2023-04-03T06:53:59;7.90;;;4.50;;
215;SDS011;64590;48.81286795;9.14184224;2023-04-03T06:56:27;9.43;;;4.90;;
215;SDS011;64590;48.81286795;9.14184224;2023-04-03T06:58:56;9.20;;;4.88;;
215;SDS011;64590;48.81286795;9.14184224;2023-04-03T07:01:23;9.05;;;4.97;;
215;SDS011;64590;48.81286795;9.14184224;2023-04-03T07:03:51;10.90;;;5.00;;
215;SDS011;64590;48.81286795;9.14184224;2023-04-03T07:06:18;8.23;;;4.80;;
215;SDS011;64590;48.81286795;9.14184224;2023-04-03T07:08:44;8.88;;;5.20;;
215;SDS011;64590;48.81286795;9.14184224;2023-04-03T07:11:12;8.32;;;4.90;;
215;SDS011;64590;48.81286795;9.14184224;2023-04-03T07:13:38;11.18;;;4.93;;
215;SDS011;64590;48.81286795;9.14184224;2023-04-03T07:16:07;9.65;;;5.35;;
215;SDS011;64590;48.81286795;9.14184224;2023-04-03T07:18:34;10.20;;;5.50;;
215;SDS011;64590;48.81286795;9.14184224;2023-04-03T07:21:01;10.48;;;5.00;;
215;SDS011;64590;48.81286795;9.14184224;2023-04-03T07:23:28;9.05;;;5.10;;
215;SDS011;64590;48.81286795;9.14184224;2023-04-03T07:25:55;10.80;;;5.10;;
215;SDS011;64590;48.81286795;9.14184224;2023-04-03T07:28:22;9.50;;;5.53;;
215;SDS011;64590;48.81286795;9.14184224;2023-04-03T07:30:50;7.97;;;4.65;;
215;SDS011;64590;48.81286795;9.14184224;2023-04-03T07:33:20;7.85;;;4.90;;
215;SDS011;64590;48.81286795;9.14184224;2023-04-03T07:35:48;17.83;;;5.57;;
215;SDS011;64590;48.81286795;9.14184224;2023-04-03T07:38:15;8.60;;;5.30;;
215;SDS011;64590;48.81286795;9.14184224;2023-04-03T07:40:45;11.02;;;5.40;;
215;SDS011;64590;48.81286795;9.14184224;2023-04-03T07:43:12;10.10;;;5.60;;
215;SDS011;64590;48.81286795;9.14184224;2023-04-03T07:45:39;10.77;;;5.30;;
215;SDS011;64590;48.81286795;9.14184224;2023-04-03T07:48:06;10.05;;;5.68;;
215;SDS011;64590;48.81286795;9.14184224;2023-04-03T07:50:34;9.13;;;5.00;;
215;SDS011;64590;48.81286795;9.14184224;2023-04-03T07:53:01;10.40;;;5.30;;
215;SDS011;64590;48.81286795;9.14184224;2023-04-03T07:55:28;9.05;;;5.25;;
215;SDS011;64590;48.81286795;9.14184224;2023-04-03T07:57:54;9.95;;;5.55;;
215;SDS011;64590;48.81286795;9.14184224;2023-04-03T08:00:21;8.95;;;5.28;;
215;SDS011;64590;48.81286795;9.14184224;2023-04-03T08:02:48;10.48;;;5.25;;
215;SDS011;64590;48.81286795;9.14184224;2023-04-03T08:05:16;9.90;;;6.00;;
215;SDS011;64590;48.81286795;9.14184224;2023-04-03T08:07:44;12.73;;;5.75;;
215;SDS011;64590;48.81286795;9.14184224;2023-04-03T08:10:11;11.70;;;5.05;;
215;SDS011;64590;48.81286795;9.14184224;2023-04-03T08:12:38;9.50;;;5.60;;
215;SDS011;64590;48.81286795;9.14184224;2023-04-03T08:15:05;12.82;;;5.68;;
215;SDS011;64590;48.81286795;9.14184224;2023-04-03T08:17:32;8.95;;;5.35;;
215;SDS011;64590;48.81286795;9.14184224;2023-04-03T08:19:59;11.00;;;5.65;;
215;SDS011;64590;48.81286795;9.14184224;2023-04-03T08:22:25;9.27;;;5.50;;
215;SDS011;64590;48.81286795;9.14184224;2023-04-03T08:24:53;9.05;;;5.03;;
215;SDS011;64590;48.81286795;9.14184224;2023-04-03T08:27:20;8.43;;;5.05;;
215;SDS011;64590;48.81286795;9.14184224;2023-04-03T08:29:47;9.63;;;4.88;;
215;SDS011;64590;48.81286795;9.14184224;2023-04-03T08:32:13;8.55;;;4.95;;
215;SDS011;64590;48.81286795;9.14184224;2023-04-03T08:34:40;10.45;;;5.50;;
215;SDS011;64590;48.81286795;9.14184224;2023-04-03T08:37:06;9.35;;;4.97;;
215;SDS011;64590;48.81286795;9.14184224;2023-04-03T08:39:33;8.88;;;5.03;;
215;SDS011;64590;48.81286795;9.14184224;2023-04-03T08:42:02;9.80;;;5.30;;
215;SDS011;64590;48.81286795;9.14184224;2023-04-03T08:44:39;9.57;;;5.50;;
215;SDS011;64590;48.81286795;9.14184224;2023-04-03T08:47:15;15.40;;;5.68;;
215;SDS011;64590;48.81286795;9.14184224;2023-04-03T08:49:50;10.35;;;5.45;;
215;SDS011;64590;48.81286795;9.14184224;2023-04-03T08:52:20;10.45;;;6.00;;
215;SDS011;64590;48.81286795;9.14184224;2023-04-03T08:54:58;12.40;;;5.20;;
215;SDS011;64590;48.81286795;9.14184224;2023-04-03T09:00:26;9.40;;;5.10;;
215;SDS011;64590;48.81286795;9.14184224;2023-04-03T09:02:56;8.82;;;5.25;;
215;SDS011;64590;48.81286795;9.14184224;2023-04-03T09:05:32;9.25;;;5.35;;
215;SDS011;64590;48.81286795;9.14184224;2023-04-03T09:08:07;8.35;;;4.93;;
215;SDS011;64590;48.81286795;9.14184224;2023-04-03T09:10:42;8.73;;;5.20;;
215;SDS011;64590;48.81286795;9.14184224;2023-04-03T09:13:12;9.18;;;5.50;;
215;SDS011;64590;48.81286795;9.14184224;2023-04-03T09:15:48;7.95;;;5.38;;
215;SDS011;64590;48.81286795;9.14184224;2023-04-03T09:18:16;10.10;;;5.35;;
215;SDS011;64590;48.81286795;9.14184224;2023-04-03T09:20:49;10.27;;;5.75;;
215;SDS011;64590;48.81286795;9.14184224;2023-04-03T09:23:26;13.85;;;5.40;;
215;SDS011;64590;48.81286795;9.14184224;2023-04-03T09:25:57;11.20;;;4.88;;
215;SDS011;64590;48.81286795;9.14184224;2023-04-03T09:28:30;9.65;;;4.75;;
215;SDS011;64590;48.81286795;9.14184224;2023-04-03T09:31:00;7.45;;;4.30;;
215;SDS011;64590;48.81286795;9.14184224;2023-04-03T09:33:28;8.35;;;4.70;;
215;SDS011;64590;48.81286795;9.14184224;2023-04-03T09:35:56;7.85;;;4.90;;
215;SDS011;64590;48.81286795;9.14184224;2023-04-03T09:38:23;9.40;;;4.55;;
215;SDS011;64590;48.81286795;9.14184224;2023-04-03T09:40:50;8.40;;;4.70;;
215;SDS011;64590;48.81286795;9.14184224;2023-04-03T09:43:32;9.40;;;5.07;;
215;SDS011;64590;48.81286795;9.14184224;2023-04-03T09:46:17;7.85;;;4.47;;
215;SDS011;64590;48.81286795;9.14184224;2023-04-03T09:49:01;7.28;;;4.55;;
215;SDS011;64590;48.81286795;9.14184224;2023-04-03T09:51:30;13.10;;;5.20;;
215;SDS011;64590;48.81286795;9.14184224;2023-04-03T09:53:57;10.52;;;5.35;;
215;SDS011;64590;48.81286795;9.14184224;2023-04-03T09:56:25;8.40;;;4.78;;
215;SDS011;64590;48.81286795;9.14184224;2023-04-03T09:59:07;9.00;;;5.10;;
215;SDS011;64590;48.81286795;9.14184224;2023-04-03T10:01:42;8.37;;;4.50;;
215;SDS011;64590;48.81286795;9.14184224;2023-04-03T10:04:22;8.02;;;4.57;;
215;SDS011;64590;48.81286795;9.14184224;2023-04-03T10:06:50;6.77;;;4.03;;
215;SDS011;64590;48.81286795;9.14184224;2023-04-03T10:09:19;6.67;;;4.20;;
215;SDS011;64590;48.81286795;9.14184224;2023-04-03T10:11:57;8.63;;;4.40;;
215;SDS011;64590;48.81286795;9.14184224;2023-04-03T10:14:31;8.95;;;4.50;;
215;SDS011;64590;48.81286795;9.14184224;2023-04-03T10:17:03;7.80;;;4.70;;
215;SDS011;64590;48.81286795;9.14184224;2023-04-03T10:19:41;8.48;;;4.50;;
215;SDS011;64590;48.81286795;9.14184224;2023-04-03T10:22:13;8.93;;;4.90;;
215;SDS011;64590;48.81286795;9.14184224;2023-04-03T10:24:47;9.60;;;4.45;;
215;SDS011;64590;48.81286795;9.14184224;2023-04-03T10:27:21;8.55;;;5.10;;
215;SDS011;64590;48.81286795;9.14184224;2023-04-03T10:30:01;14.18;;;4.80;;
215;SDS011;64590;48.81286795;9.14184224;2023-04-03T10:32:44;6.65;;;4.15;;
215;SDS011;64590;48.81286795;9.14184224;2023-04-03T10:35:20;8.45;;;4.63;;
215;SDS011;64590;48.81286795;9.14184224;2023-04-03T10:37:59;10.13;;;5.00;;
215;SDS011;64590;48.81286795;9.14184224;2023-04-03T10:40:33;8.98;;;4.97;;
215;SDS011;64590;48.81286795;9.14184224;2023-04-03T10:43:06;10.00;;;4.82;;
215;SDS011;64590;48.81286795;9.14184224;2023-04-03T10:45:47;8.33;;;4.90;;
215;SDS011;64590;48.81286795;9.14184224;2023-04-03T10:48:24;9.70;;;4.70;;
215;SDS011;64590;48.81286795;9.14184224;2023-04-03T10:51:06;8.43;;;4.63;;
215;SDS011;64590;48.81286795;9.14184224;2023-04-03T10:53:43;9.15;;;4.50;;
215;SDS011;64590;48.81286795;9.14184224;2023-04-03T10:56:18;9.50;;;4.40;;
215;SDS011;64590;48.81286795;9.14184224;2023-04-03T10:58:49;8.27;;;4.60;;
215;SDS011;64590;48.81286795;9.14184224;2023-04-03T11:01:22;7.87;;;4.10;;
215;SDS011;64590;48.81286795;9.14184224;2023-04-03T11:03:54;7.15;;;4.30;;
215;SDS011;64590;48.81286795;9.14184224;2023-04-03T11:06:24;6.85;;;4.10;;
215;SDS011;64590;48.81286795;9.14184224;2023-04-03T11:08:59;6.57;;;3.88;;
215;SDS011;64590;48.81286795;9.14184224;2023-04-03T11:11:32;11.43;;;4.00;;
215;SDS011;64590;48.81286795;9.14184224;2023-04-03T11:14:02;7.05;;;3.90;;
215;SDS011;64590;48.81286795;9.14184224;2023-04-03T11:16:33;5.88;;;3.35;;
215;SDS011;64590;48.81286795;9.14184224;2023-04-03T11:19:04;7.80;;;3.50;;
215;SDS011;64590;48.81286795;9.14184224;2023-04-03T11:21:41;8.07;;;3.60;;
215;SDS011;64590;48.81286795;9.14184224;2023-04-03T11:24:13;9.43;;;3.50;;
215;SDS011;64590;48.81286795;9.14184224;2023-04-03T11:26:44;5.63;;;3.30;;
215;SDS011;64590;48.81286795;9.14184224;2023-04-03T11:29:12;7.03;;;3.95;;
215;SDS011;64590;48.81286795;9.14184224;2023-04-03T11:31:52;9.07;;;3.60;;
215;SDS011;64590;48.81286795;9.14184224;2023-04-03T11:34:33;8.57;;;3.50;;
215;SDS011;64590;48.81286795;9.14184224;2023-04-03T11:37:05;8.48;;;4.20;;
215;SDS011;64590;48.81286795;9.14184224;2023-04-03T11:39:40;6.22;;;3.60;;
215;SDS011;64590;48.81286795;9.14184224;2023-04-03T11:42:17;6.78;;;3.60;;
215;SDS011;64590;48.81286795;9.14184224;2023-04-03T11:47:50;7.40;;;3.85;;
215;SDS011;64590;48.81286795;9.14184224;2023-04-03T11:50:30;4.97;;;3.50;;
215;SDS011;64590;48.81286795;9.14184224;2023-04-03T12:01:44;9.00;;;3.57;;
215;SDS011;64590;48.81286795;9.14184224;2023-04-03T12:04:14;7.85;;;3.47;;
215;SDS011;64590;48.81286795;9.14184224;2023-04-03T12:06:48;12.27;;;3.67;;
215;SDS011;64590;48.81286795;9.14184224;2023-04-03T12:12:42;7.00;;;3.63;;
215;SDS011;64590;48.81286795;9.14184224;2023-04-03T12:21:25;5.83;;;3.70;;
215;SDS011;64590;48.81286795;9.14184224;2023-04-03T12:24:32;6.87;;;3.50;;
215;SDS011;64590;48.81286795;9.14184224;2023-04-03T12:27:02;7.10;;;3.47;;
215;SDS011;64590;48.81286795;9.14184224;2023-04-03T12:29:33;6.80;;;3.75;;
215;SDS011;64590;48.81286795;9.14184224;2023-04-03T12:32:08;6.23;;;3.37;;
215;SDS011;64590;48.81286795;9.14184224;2023-04-03T12:34:46;8.40;;;3.80;;
215;SDS011;64590;48.81286795;9.14184224;2023-04-03T12:37:37;7.87;;;4.10;;
215;SDS011;64590;48.81286795;9.14184224;2023-04-03T12:40:10;7.33;;;3.57;;
215;SDS011;64590;48.81286795;9.14184224;2023-04-03T12:43:06;5.50;;;3.20;;
215;SDS011;64590;48.81286795;9.14184224;2023-04-03T12:45:44;6.57;;;3.70;;
215;SDS011;64590;48.81286795;9.14184224;2023-04-03T12:48:16;5.90;;;3.97;;
215;SDS011;64590;48.81286795;9.14184224;2023-04-03T12:50:45;6.53;;;3.75;;
215;SDS011;64590;48.81286795;9.14184224;2023-04-03T12:53:15;7.63;;;4.07;;
215;SDS011;64590;48.81286795;9.14184224;2023-04-03T12:55:45;7.07;;;3.73;;
215;SDS011;64590;48.81286795;9.14184224;2023-04-03T12:58:13;6.33;;;3.77;;
215;SDS011;64590;48.81286795;9.14184224;2023-04-03T13:00:42;7.57;;;3.97;;
215;SDS011;64590;48.81286795;9.14184224;2023-04-03T13:03:19;8.50;;;3.93;;
215;SDS011;64590;48.81286795;9.14184224;2023-04-03T13:05:49;7.90;;;3.77;;
215;SDS011;64590;48.81286795;9.14184224;2023-04-03T13:08:17;7.90;;;3.70;;
215;SDS011;64590;48.81286795;9.14184224;2023-04-03T13:10:48;7.23;;;3.73;;
215;SDS011;64590;48.81286795;9.14184224;2023-04-03T13:13:18;7.27;;;3.73;;
215;SDS011;64590;48.81286795;9.14184224;2023-04-03T13:15:45;7.60;;;3.80;;
215;SDS011;64590;48.81286795;9.14184224;2023-04-03T13:18:22;6.10;;;3.70;;
215;SDS011;64590;48.81286795;9.14184224;2023-04-03T13:20:53;8.43;;;4.03;;
215;SDS011;64590;48.81286795;9.14184224;2023-04-03T13:23:27;5.70;;;3.63;;
215;SDS011;64590;48.81286795;9.14184224;2023-04-03T13:25:55;7.13;;;3.97;;
215;SDS011;64590;48.81286795;9.14184224;2023-04-03T13:28:26;7.50;;;3.70;;
215;SDS011;64590;48.81286795;9.14184224;2023-04-03T13:30:55;7.10;;;3.80;;
215;SDS011;64590;48.81286795;9.14184224;2023-04-03T13:33:26;8.60;;;3.93;;
215;SDS011;64590;48.81286795;9.14184224;2023-04-03T13:35:57;7.27;;;3.60;;
215;SDS011;64590;48.81286795;9.14184224;2023-04-03T13:38:28;5.20;;;3.50;;
215;SDS011;64590;48.81286795;9.14184224;2023-04-03T13:40:58;5.97;;;3.63;;
215;SDS011;64590;48.81286795;9.14184224;2023-04-03T13:43:28;8.47;;;3.90;;
215;SDS011;64590;48.81286795;9.14184224;2023-04-03T13:45:58;6.20;;;3.73;;
215;SDS011;64590;48.81286795;9.14184224;2023-04-03T13:48:36;7.00;;;3.57;;
215;SDS011;64590;48.81286795;9.14184224;2023-04-03T13:51:05;6.03;;;3.60;;